Terminal Aerodrome Forecast
Issued by NWS Bismarck, ND

Home | Current Version | Previous Version | Text Only | Print | Product List | Glossary On
Versions: 1 2 3 4 5 6 7 8 9 10 11 12 13 14 15 16 17
426
FTUS43 KBIS 151721
TAFISN
TAF
KISN 151721Z 1518/1618 30017G24KT P6SM FEW060
     FM160100 24006KT P6SM SKC
     FM160500 20006KT P6SM SKC
     FM160800 21007KT P6SM SKC WS020/25030KT
     FM161200 23006KT P6SM FEW140 FEW250 WS020/27035KT
     FM161600 25012G18KT P6SM FEW250=

USA.gov is the U.S. government's official web portal to all federal, state and local government web resources and services.